Time;durP1;ratioP1;P1;durP2;ratioP2;P2;SDS_P1;SDS_P2;PMS_P1;PMS_P2;Temp;Humidity;BMP_temperature;BMP_pressure;BME280_temperature;BME280_humidity;BME280_pressure;Samples;Min_cycle;Max_cycle;Signal;HPM_P1;HPM_P2
2022/09/16 00:02:04;;;;;;;0.87;0.87;;;21.70;99.90;;;;;;5054469;28;20444;-68
2022/09/16 00:04:31;;;;;;;1.30;1.00;;;21.70;99.90;;;;;;5054443;28;20550;-69
2022/09/16 00:06:57;;;;;;;0.90;0.90;;;21.70;99.90;;;;;;5054153;28;20535;-69
2022/09/16 00:09:24;;;;;;;1.00;0.90;;;21.70;99.90;;;;;;5054388;28;20508;-68
2022/09/16 00:11:52;;;;;;;0.70;0.70;;;21.70;99.90;;;;;;5054122;28;21001;-68
2022/09/16 00:14:19;;;;;;;0.80;0.80;;;21.70;99.90;;;;;;5054262;28;20547;-69
2022/09/16 00:16:46;;;;;;;1.17;0.57;;;21.70;99.90;;;;;;5054124;28;20450;-68
2022/09/16 00:19:13;;;;;;;1.17;1.07;;;21.70;99.90;;;;;;5054182;28;20851;-68
2022/09/16 00:21:40;;;;;;;0.80;0.80;;;21.70;99.90;;;;;;5053982;28;20446;-69
2022/09/16 00:24:07;;;;;;;1.07;0.80;;;21.60;99.90;;;;;;5053888;28;20485;-69
2022/09/16 00:26:34;;;;;;;1.13;1.03;;;21.70;99.90;;;;;;5054101;28;20490;-68
2022/09/16 00:29:03;;;;;;;0.70;0.70;;;21.70;99.90;;;;;;5053973;28;20459;-68
2022/09/16 00:31:29;;;;;;;2.03;1.93;;;21.60;99.90;;;;;;5053808;28;20566;-69
2022/09/16 00:33:56;;;;;;;0.70;0.70;;;21.60;99.90;;;;;;5053712;28;20531;-69
2022/09/16 00:36:23;;;;;;;0.80;0.70;;;21.60;99.90;;;;;;5053992;28;20551;-69
2022/09/16 00:38:52;;;;;;;0.57;0.57;;;21.60;99.90;;;;;;5053793;28;20498;-69
2022/09/16 00:41:22;;;;;;;1.23;0.80;;;21.60;99.90;;;;;;5053630;28;20921;-69
2022/09/16 00:43:52;;;;;;;0.70;0.70;;;21.60;99.90;;;;;;5053697;28;20451;-69
2022/09/16 00:46:26;;;;;;;0.70;0.70;;;21.60;99.90;;;;;;5053707;28;20440;-69
2022/09/16 00:48:53;;;;;;;0.77;0.77;;;21.60;99.90;;;;;;5053855;28;20451;-68
2022/09/16 00:51:21;;;;;;;0.73;0.73;;;21.60;99.90;;;;;;5053470;28;20490;-69
2022/09/16 00:53:55;;;;;;;1.03;1.03;;;21.60;99.90;;;;;;5053327;28;20862;-69
2022/09/16 00:56:25;;;;;;;1.57;0.93;;;21.60;99.90;;;;;;5053873;28;20479;-69
2022/09/16 00:59:01;;;;;;;0.70;0.70;;;21.60;99.90;;;;;;5053228;28;20531;-68
2022/09/16 01:01:29;;;;;;;1.17;0.53;;;21.50;99.90;;;;;;5053379;28;20527;-68
2022/09/16 01:04:01;;;;;;;0.60;0.60;;;21.60;99.90;;;;;;5053078;28;20922;-68
2022/09/16 01:06:29;;;;;;;0.97;0.90;;;21.50;99.90;;;;;;5053414;28;20447;-69
2022/09/16 01:08:56;;;;;;;0.60;0.60;;;21.50;99.90;;;;;;5053491;28;20527;-69
2022/09/16 01:11:24;;;;;;;0.80;0.80;;;21.50;99.90;;;;;;5053036;28;20480;-69
2022/09/16 01:13:52;;;;;;;1.33;0.67;;;21.50;99.90;;;;;;5052929;28;20448;-69
2022/09/16 01:16:25;;;;;;;0.60;0.60;;;21.50;99.90;;;;;;5053274;28;20452;-69
2022/09/16 01:19:02;;;;;;;0.80;0.80;;;21.50;99.90;;;;;;5052959;28;21041;-68
2022/09/16 01:21:38;;;;;;;0.90;0.67;;;21.50;99.90;;;;;;5052931;28;20440;-69
2022/09/16 01:24:49;;;;;;;0.60;0.60;;;21.50;99.90;;;;;;5052743;28;20452;-69
2022/09/16 01:27:33;;;;;;;0.73;0.73;;;21.50;99.90;;;;;;5052917;28;20454;-69
2022/09/16 01:30:21;;;;;;;0.70;0.60;;;21.50;99.90;;;;;;5052857;28;20484;-69
2022/09/16 01:33:07;;;;;;;0.70;0.70;;;21.50;99.90;;;;;;5052424;28;20448;-69
2022/09/16 01:35:53;;;;;;;0.60;0.60;;;21.50;99.90;;;;;;5051503;28;20479;-69
2022/09/16 01:38:32;;;;;;;0.60;0.60;;;21.50;99.90;;;;;;5052675;28;20444;-69
2022/09/16 01:41:09;;;;;;;2.63;0.70;;;21.50;99.90;;;;;;5052584;28;20809;-69
2022/09/16 01:43:44;;;;;;;0.70;0.70;;;21.40;99.90;;;;;;5052298;28;20475;-68
2022/09/16 01:46:19;;;;;;;0.50;0.50;;;21.40;99.90;;;;;;5052514;28;20534;-68
2022/09/16 01:48:54;;;;;;;0.67;0.67;;;21.40;99.90;;;;;;5052840;28;20552;-68
2022/09/16 01:51:25;;;;;;;1.53;1.00;;;21.40;99.90;;;;;;5052288;28;20485;-68
2022/09/16 01:54:02;;;;;;;0.60;0.60;;;21.40;99.90;;;;;;5052144;28;20531;-68
2022/09/16 01:56:36;;;;;;;0.97;0.70;;;21.40;99.90;;;;;;5052578;28;20448;-68
2022/09/16 01:59:07;;;;;;;0.60;0.60;;;21.40;99.90;;;;;;5052098;28;20490;-68
2022/09/16 02:01:37;;;;;;;0.73;0.73;;;21.40;99.90;;;;;;5052215;28;20522;-69
2022/09/16 02:04:11;;;;;;;0.60;0.60;;;21.40;99.90;;;;;;5052068;28;20547;-69
2022/09/16 02:06:39;;;;;;;0.73;0.73;;;21.40;99.90;;;;;;5051925;28;20459;-68
2022/09/16 02:09:12;;;;;;;0.60;0.60;;;21.40;99.90;;;;;;5052239;28;20460;-68
2022/09/16 02:11:41;;;;;;;0.90;0.63;;;21.40;99.90;;;;;;5051895;28;20582;-68
2022/09/16 02:14:13;;;;;;;0.60;0.60;;;21.40;99.90;;;;;;5051820;28;20535;-69
2022/09/16 02:16:45;;;;;;;0.60;0.60;;;21.40;99.90;;;;;;5051909;28;20446;-68
2022/09/16 02:19:20;;;;;;;1.23;1.07;;;21.30;99.90;;;;;;5051911;28;20559;-68
2022/09/16 02:21:47;;;;;;;0.80;0.80;;;21.30;99.90;;;;;;5052042;28;20439;-68
2022/09/16 02:24:17;;;;;;;0.80;0.80;;;21.30;99.90;;;;;;5050993;28;20445;-69
2022/09/16 02:26:48;;;;;;;0.63;0.63;;;21.30;99.90;;;;;;5051926;28;20444;-68
2022/09/16 02:29:19;;;;;;;0.60;0.60;;;21.30;99.90;;;;;;5051604;28;20529;-69
2022/09/16 02:31:47;;;;;;;0.80;0.60;;;21.30;99.90;;;;;;5051546;28;20476;-69
2022/09/16 02:34:19;;;;;;;0.70;0.70;;;21.30;99.90;;;;;;5051333;28;20976;-68
2022/09/16 02:36:51;;;;;;;0.80;0.80;;;21.30;99.90;;;;;;5051704;28;20527;-68
2022/09/16 02:39:22;;;;;;;0.60;0.60;;;21.30;99.90;;;;;;5051758;28;20474;-69
2022/09/16 02:41:49;;;;;;;0.73;0.73;;;21.30;99.90;;;;;;5051734;28;20446;-68
2022/09/16 02:44:16;;;;;;;0.50;0.50;;;21.30;99.90;;;;;;5051225;28;20537;-69
2022/09/16 02:46:53;;;;;;;1.17;0.80;;;21.30;99.90;;;;;;5051634;28;20511;-69
2022/09/16 02:49:27;;;;;;;0.70;0.70;;;21.30;99.90;;;;;;5051462;28;20977;-69
2022/09/16 02:51:58;;;;;;;0.70;0.70;;;21.30;99.90;;;;;;5051230;28;20490;-69
2022/09/16 02:54:34;;;;;;;1.00;1.00;;;21.30;99.90;;;;;;5031557;28;20451;-69
2022/09/16 02:57:01;;;;;;;0.60;0.60;;;21.30;99.90;;;;;;5031511;28;20476;-69
2022/09/16 02:59:28;;;;;;;0.53;0.53;;;21.30;99.90;;;;;;5031354;28;20483;-69
2022/09/16 03:01:55;;;;;;;0.60;0.60;;;21.30;99.90;;;;;;5044949;28;20467;-69
2022/09/16 03:04:23;;;;;;;1.90;0.60;;;21.30;99.90;;;;;;5051298;28;20467;-69
2022/09/16 03:06:50;;;;;;;0.70;0.60;;;21.30;99.90;;;;;;5051423;28;20474;-69
2022/09/16 03:09:22;;;;;;;0.80;0.80;;;21.20;99.90;;;;;;5051260;28;20464;-69
2022/09/16 03:12:15;;;;;;;0.60;0.53;;;21.20;99.90;;;;;;5050900;28;20476;-69
2022/09/16 03:15:07;;;;;;;0.70;0.70;;;21.20;99.90;;;;;;5051266;28;20448;-69
2022/09/16 03:17:54;;;;;;;0.53;0.53;;;21.20;99.90;;;;;;5051434;28;20548;-69
2022/09/16 03:20:31;;;;;;;0.87;0.87;;;21.20;99.90;;;;;;5051064;28;20543;-69
2022/09/16 03:23:11;;;;;;;0.97;0.67;;;21.20;99.90;;;;;;5031140;28;20441;-69
2022/09/16 03:25:46;;;;;;;0.60;0.60;;;21.20;99.90;;;;;;5031331;28;20582;-69
2022/09/16 03:28:18;;;;;;;0.60;0.60;;;21.20;99.90;;;;;;5031973;28;20456;-69
2022/09/16 03:30:53;;;;;;;0.60;0.60;;;21.20;99.90;;;;;;5038051;28;20491;-69
2022/09/16 03:33:25;;;;;;;0.60;0.60;;;21.20;99.90;;;;;;5054783;28;20451;-69
2022/09/16 03:35:57;;;;;;;0.80;0.80;;;21.20;99.90;;;;;;5054998;28;20663;-69
2022/09/16 03:38:24;;;;;;;0.70;0.70;;;21.20;99.90;;;;;;5054889;28;20534;-69
2022/09/16 03:40:51;;;;;;;1.43;1.00;;;21.20;99.90;;;;;;5054473;28;20576;-69
2022/09/16 03:43:18;;;;;;;0.93;0.70;;;21.20;99.90;;;;;;5054546;28;20444;-69
2022/09/16 03:45:45;;;;;;;1.43;0.80;;;21.20;99.90;;;;;;5054686;28;20443;-69
2022/09/16 03:48:13;;;;;;;0.80;0.80;;;21.20;99.90;;;;;;5054625;28;20534;-69
2022/09/16 03:50:40;;;;;;;0.67;0.67;;;21.20;99.90;;;;;;5054289;28;20579;-69
2022/09/16 03:53:08;;;;;;;0.90;0.90;;;21.20;99.90;;;;;;5054382;28;20539;-69
2022/09/16 03:55:35;;;;;;;1.17;0.60;;;21.10;99.90;;;;;;5054541;28;20467;-69
2022/09/16 03:58:02;;;;;;;0.70;0.70;;;21.20;99.90;;;;;;5054586;28;20484;-68
2022/09/16 04:00:29;;;;;;;0.60;0.60;;;21.10;99.90;;;;;;5054088;28;20552;-68
2022/09/16 04:02:56;;;;;;;0.63;0.63;;;21.10;99.90;;;;;;5054225;28;20539;-69
2022/09/16 04:05:23;;;;;;;0.63;0.63;;;21.10;99.90;;;;;;5054398;28;20447;-68
2022/09/16 04:07:50;;;;;;;0.77;0.77;;;21.10;99.90;;;;;;5054495;28;20856;-68
2022/09/16 04:10:19;;;;;;;0.60;0.60;;;21.10;99.90;;;;;;5053835;28;20550;-68
2022/09/16 04:12:45;;;;;;;1.33;0.70;;;21.10;99.90;;;;;;5054108;28;20466;-69
2022/09/16 04:15:12;;;;;;;2.73;1.03;;;21.10;99.90;;;;;;5054218;28;20454;-69
2022/09/16 04:17:39;;;;;;;4.07;0.97;;;21.10;99.90;;;;;;5054199;28;20440;-69
2022/09/16 04:20:07;;;;;;;2.57;0.93;;;21.10;99.90;;;;;;5053884;28;20571;-65
